sensor_id;sensor_type;location;lat;lon;timestamp;pressure;altitude;pressure_sealevel;temperature;humidity
49423;BME280;36998;51.974;20.150;2022-10-16T00:00:39;100119.13;;;17.34;54.90
49423;BME280;36998;51.974;20.150;2022-10-16T00:03:05;100107.38;;;17.33;54.58
49423;BME280;36998;51.974;20.150;2022-10-16T00:05:31;100110.09;;;17.33;54.75
49423;BME280;36998;51.974;20.150;2022-10-16T00:07:57;100117.84;;;17.29;54.83
49423;BME280;36998;51.974;20.150;2022-10-16T00:10:23;100113.25;;;17.30;54.65
49423;BME280;36998;51.974;20.150;2022-10-16T00:12:48;100115.75;;;17.31;54.72
49423;BME280;36998;51.974;20.150;2022-10-16T00:15:15;100105.06;;;17.30;54.85
49423;BME280;36998;51.974;20.150;2022-10-16T00:17:41;100106.31;;;17.27;54.84
49423;BME280;36998;51.974;20.150;2022-10-16T00:20:07;100105.91;;;17.30;54.88
49423;BME280;36998;51.974;20.150;2022-10-16T00:22:51;100112.19;;;17.31;54.74
49423;BME280;36998;51.974;20.150;2022-10-16T00:25:16;100117.66;;;17.31;54.66
49423;BME280;36998;51.974;20.150;2022-10-16T00:27:42;100108.22;;;17.27;54.92
49423;BME280;36998;51.974;20.150;2022-10-16T00:30:08;100118.72;;;17.23;54.84
49423;BME280;36998;51.974;20.150;2022-10-16T00:32:34;100117.25;;;17.21;54.71
49423;BME280;36998;51.974;20.150;2022-10-16T00:34:59;100130.47;;;17.17;54.71
49423;BME280;36998;51.974;20.150;2022-10-16T00:37:24;100121.22;;;17.18;54.94
49423;BME280;36998;51.974;20.150;2022-10-16T00:39:50;100126.03;;;17.16;54.85
49423;BME280;36998;51.974;20.150;2022-10-16T00:42:18;100132.78;;;17.14;55.05
49423;BME280;36998;51.974;20.150;2022-10-16T00:47:28;100120.16;;;17.13;55.03
49423;BME280;36998;51.974;20.150;2022-10-16T00:50:08;100124.38;;;17.15;55.02
49423;BME280;36998;51.974;20.150;2022-10-16T00:52:35;100121.00;;;17.13;55.15
49423;BME280;36998;51.974;20.150;2022-10-16T00:55:03;100132.78;;;17.14;55.29
49423;BME280;36998;51.974;20.150;2022-10-16T00:57:29;100134.66;;;17.13;55.17
49423;BME280;36998;51.974;20.150;2022-10-16T00:59:56;100121.00;;;17.13;55.22
49423;BME280;36998;51.974;20.150;2022-10-16T01:02:22;100138.25;;;17.14;55.21
49423;BME280;36998;51.974;20.150;2022-10-16T01:04:50;100131.50;;;17.09;55.30
49423;BME280;36998;51.974;20.150;2022-10-16T01:10:21;100149.16;;;17.07;55.44
49423;BME280;36998;51.974;20.150;2022-10-16T01:13:07;100156.69;;;17.05;55.49
49423;BME280;36998;51.974;20.150;2022-10-16T01:15:50;100160.91;;;17.07;55.71
49423;BME280;36998;51.974;20.150;2022-10-16T01:18:30;100152.06;;;17.05;55.58
49423;BME280;36998;51.974;20.150;2022-10-16T01:21:03;100150.41;;;17.04;55.72
49423;BME280;36998;51.974;20.150;2022-10-16T01:23:43;100149.34;;;17.05;55.95
49423;BME280;36998;51.974;20.150;2022-10-16T01:29:18;100152.28;;;16.97;55.97
49423;BME280;36998;51.974;20.150;2022-10-16T01:31:48;100147.44;;;16.86;56.27
49423;BME280;36998;51.974;20.150;2022-10-16T01:34:24;100139.66;;;16.76;56.63
49423;BME280;36998;51.974;20.150;2022-10-16T01:36:57;100149.06;;;16.74;56.45
49423;BME280;36998;51.974;20.150;2022-10-16T01:39:32;100145.50;;;16.73;56.63
49423;BME280;36998;51.974;20.150;2022-10-16T01:42:06;100147.84;;;16.76;56.54
49423;BME280;36998;51.974;20.150;2022-10-16T01:44:34;100142.81;;;16.80;56.26
49423;BME280;36998;51.974;20.150;2022-10-16T01:47:02;100143.03;;;16.78;56.46
49423;BME280;36998;51.974;20.150;2022-10-16T01:49:32;100148.63;;;16.70;56.83
49423;BME280;36998;51.974;20.150;2022-10-16T01:52:00;100138.94;;;16.61;56.92
49423;BME280;36998;51.974;20.150;2022-10-16T01:54:30;100147.97;;;16.48;57.10
49423;BME280;36998;51.974;20.150;2022-10-16T01:56:57;100145.22;;;16.42;57.63
49423;BME280;36998;51.974;20.150;2022-10-16T01:59:25;100146.47;;;16.39;57.49
49423;BME280;36998;51.974;20.150;2022-10-16T02:01:59;100157.16;;;16.41;57.60
49423;BME280;36998;51.974;20.150;2022-10-16T02:04:57;100155.22;;;16.34;57.88
49423;BME280;36998;51.974;20.150;2022-10-16T02:07:23;100169.84;;;16.20;57.96
49423;BME280;36998;51.974;20.150;2022-10-16T02:09:49;100168.13;;;16.06;58.37
49423;BME280;36998;51.974;20.150;2022-10-16T02:12:28;100161.75;;;15.92;58.50
49423;BME280;36998;51.974;20.150;2022-10-16T02:14:55;100172.59;;;15.85;59.03
49423;BME280;36998;51.974;20.150;2022-10-16T02:17:21;100165.84;;;15.75;59.28
49423;BME280;36998;51.974;20.150;2022-10-16T02:19:48;100170.78;;;15.64;59.53
49423;BME280;36998;51.974;20.150;2022-10-16T02:22:27;100168.63;;;15.53;59.62
49423;BME280;36998;51.974;20.150;2022-10-16T02:25:10;100171.91;;;15.49;59.77
49423;BME280;36998;51.974;20.150;2022-10-16T02:27:50;100174.13;;;15.38;60.58
49423;BME280;36998;51.974;20.150;2022-10-16T02:30:30;100182.25;;;15.32;60.43
49423;BME280;36998;51.974;20.150;2022-10-16T02:33:00;100173.00;;;15.26;60.64
49423;BME280;36998;51.974;20.150;2022-10-16T02:35:27;100169.38;;;15.19;60.92
49423;BME280;36998;51.974;20.150;2022-10-16T02:37:53;100168.28;;;15.13;60.98
49423;BME280;36998;51.974;20.150;2022-10-16T02:40:19;100177.88;;;15.09;61.28
49423;BME280;36998;51.974;20.150;2022-10-16T02:42:50;100174.91;;;15.04;61.35
49423;BME280;36998;51.974;20.150;2022-10-16T02:45:17;100185.53;;;14.99;61.48
49423;BME280;36998;51.974;20.150;2022-10-16T02:47:42;100187.13;;;14.93;61.69
49423;BME280;36998;51.974;20.150;2022-10-16T02:50:08;100188.34;;;14.91;61.74
49423;BME280;36998;51.974;20.150;2022-10-16T02:52:34;100186.22;;;14.86;61.89
49423;BME280;36998;51.974;20.150;2022-10-16T02:54:59;100187.66;;;14.82;61.88
49423;BME280;36998;51.974;20.150;2022-10-16T02:57:25;100184.47;;;14.79;62.32
49423;BME280;36998;51.974;20.150;2022-10-16T02:59:50;100192.81;;;14.77;62.22
49423;BME280;36998;51.974;20.150;2022-10-16T03:02:16;100189.19;;;14.70;62.56
49423;BME280;36998;51.974;20.150;2022-10-16T03:04:41;100193.78;;;14.69;62.75
49423;BME280;36998;51.974;20.150;2022-10-16T03:07:07;100194.56;;;14.63;62.86
49423;BME280;36998;51.974;20.150;2022-10-16T03:09:33;100195.78;;;14.61;63.09
49423;BME280;36998;51.974;20.150;2022-10-16T03:11:58;100197.19;;;14.57;63.12
49423;BME280;36998;51.974;20.150;2022-10-16T03:14:24;100197.56;;;14.54;62.90
49423;BME280;36998;51.974;20.150;2022-10-16T03:16:49;100195.41;;;14.49;63.19
49423;BME280;36998;51.974;20.150;2022-10-16T03:19:16;100194.97;;;14.45;63.65
49423;BME280;36998;51.974;20.150;2022-10-16T03:21:42;100197.19;;;14.42;63.37
49423;BME280;36998;51.974;20.150;2022-10-16T03:24:07;100200.94;;;14.41;63.57
49423;BME280;36998;51.974;20.150;2022-10-16T03:26:33;100201.31;;;14.38;63.86
49423;BME280;36998;51.974;20.150;2022-10-16T03:28:58;100201.91;;;14.33;63.95
49423;BME280;36998;51.974;20.150;2022-10-16T03:31:24;100198.72;;;14.29;63.92
49423;BME280;36998;51.974;20.150;2022-10-16T03:33:49;100207.25;;;14.26;64.35
49423;BME280;36998;51.974;20.150;2022-10-16T03:36:15;100202.19;;;14.23;64.44
49423;BME280;36998;51.974;20.150;2022-10-16T03:38:40;100210.53;;;14.22;64.59
49423;BME280;36998;51.974;20.150;2022-10-16T03:41:06;100220.91;;;14.18;64.52
49423;BME280;36998;51.974;20.150;2022-10-16T03:43:33;100211.28;;;14.16;64.63
49423;BME280;36998;51.974;20.150;2022-10-16T03:45:58;100218.94;;;14.12;65.02
49423;BME280;36998;51.974;20.150;2022-10-16T03:48:24;100220.19;;;14.10;64.79
49423;BME280;36998;51.974;20.150;2022-10-16T03:50:49;100214.94;;;14.08;65.09
49423;BME280;36998;51.974;20.150;2022-10-16T03:53:17;100222.63;;;14.04;65.33
49423;BME280;36998;51.974;20.150;2022-10-16T03:55:43;100218.41;;;14.02;65.45
49423;BME280;36998;51.974;20.150;2022-10-16T03:58:08;100219.59;;;13.99;65.42
49423;BME280;36998;51.974;20.150;2022-10-16T04:00:33;100221.47;;;13.99;65.56
49423;BME280;36998;51.974;20.150;2022-10-16T04:03:00;100217.28;;;13.96;65.72
49423;BME280;36998;51.974;20.150;2022-10-16T04:05:26;100219.34;;;13.94;65.92
49423;BME280;36998;51.974;20.150;2022-10-16T04:07:51;100231.25;;;13.93;66.21
49423;BME280;36998;51.974;20.150;2022-10-16T04:10:17;100225.97;;;13.92;66.18
49423;BME280;36998;51.974;20.150;2022-10-16T04:12:43;100226.19;;;13.90;66.44
49423;BME280;36998;51.974;20.150;2022-10-16T04:15:09;100225.34;;;13.90;66.10
49423;BME280;36998;51.974;20.150;2022-10-16T04:17:35;100230.78;;;13.90;66.28
49423;BME280;36998;51.974;20.150;2022-10-16T04:20:00;100233.50;;;13.90;66.62
49423;BME280;36998;51.974;20.150;2022-10-16T04:22:26;100229.06;;;13.89;66.49
49423;BME280;36998;51.974;20.150;2022-10-16T04:24:52;100221.97;;;13.88;66.86
49423;BME280;36998;51.974;20.150;2022-10-16T04:27:17;100230.78;;;13.90;66.84
49423;BME280;36998;51.974;20.150;2022-10-16T04:29:42;100225.25;;;13.98;66.64
49423;BME280;36998;51.974;20.150;2022-10-16T04:32:08;100233.09;;;14.08;66.68
49423;BME280;36998;51.974;20.150;2022-10-16T04:34:34;100237.41;;;14.17;66.90
49423;BME280;36998;51.974;20.150;2022-10-16T04:37:00;100241.28;;;14.22;66.38
49423;BME280;36998;51.974;20.150;2022-10-16T04:39:25;100237.97;;;14.27;66.31
49423;BME280;36998;51.974;20.150;2022-10-16T04:41:51;100240.31;;;14.30;66.27
49423;BME280;36998;51.974;20.150;2022-10-16T04:44:16;100253.31;;;14.35;66.46
49423;BME280;36998;51.974;20.150;2022-10-16T04:46:42;100254.81;;;14.37;66.23
49423;BME280;36998;51.974;20.150;2022-10-16T04:49:07;100236.47;;;14.39;66.31
49423;BME280;36998;51.974;20.150;2022-10-16T04:51:32;100236.72;;;14.44;66.22
49423;BME280;36998;51.974;20.150;2022-10-16T04:53:58;100245.00;;;14.51;66.08
49423;BME280;36998;51.974;20.150;2022-10-16T04:56:23;100250.50;;;14.58;66.09
49423;BME280;36998;51.974;20.150;2022-10-16T04:58:49;100244.06;;;14.59;66.44
49423;BME280;36998;51.974;20.150;2022-10-16T05:01:15;100242.66;;;14.63;66.42
49423;BME280;36998;51.974;20.150;2022-10-16T05:03:40;100257.81;;;14.72;65.95
49423;BME280;36998;51.974;20.150;2022-10-16T05:06:06;100254.50;;;14.77;66.13
49423;BME280;36998;51.974;20.150;2022-10-16T05:08:32;100257.13;;;14.85;65.70
49423;BME280;36998;51.974;20.150;2022-10-16T05:10:57;100249.03;;;14.91;65.69
49423;BME280;36998;51.974;20.150;2022-10-16T05:13:23;100244.50;;;14.98;65.57
49423;BME280;36998;51.974;20.150;2022-10-16T05:15:49;100243.75;;;15.05;65.36
49423;BME280;36998;51.974;20.150;2022-10-16T05:18:15;100241.94;;;15.12;65.50
49423;BME280;36998;51.974;20.150;2022-10-16T05:20:41;100252.50;;;15.21;64.99
49423;BME280;36998;51.974;20.150;2022-10-16T05:23:07;100245.00;;;15.30;65.14
49423;BME280;36998;51.974;20.150;2022-10-16T05:25:33;100250.13;;;15.40;64.91
49423;BME280;36998;51.974;20.150;2022-10-16T05:27:58;100249.16;;;15.48;64.57
49423;BME280;36998;51.974;20.150;2022-10-16T05:30:24;100255.25;;;15.50;64.39
49423;BME280;36998;51.974;20.150;2022-10-16T05:32:50;100260.75;;;15.56;64.42
49423;BME280;36998;51.974;20.150;2022-10-16T05:35:17;100257.63;;;15.59;64.39
49423;BME280;36998;51.974;20.150;2022-10-16T05:37:52;100254.13;;;15.65;63.97
49423;BME280;36998;51.974;20.150;2022-10-16T05:40:18;100268.22;;;15.69;64.05
49423;BME280;36998;51.974;20.150;2022-10-16T05:42:43;100259.09;;;15.77;64.38
49423;BME280;36998;51.974;20.150;2022-10-16T05:45:10;100258.47;;;15.81;63.73
49423;BME280;36998;51.974;20.150;2022-10-16T05:47:37;100266.25;;;15.84;63.54
49423;BME280;36998;51.974;20.150;2022-10-16T05:50:03;100269.63;;;15.86;63.94
49423;BME280;36998;51.974;20.150;2022-10-16T05:52:29;100266.50;;;15.89;63.90
49423;BME280;36998;51.974;20.150;2022-10-16T05:54:54;100264.66;;;15.97;63.43
49423;BME280;36998;51.974;20.150;2022-10-16T05:57:20;100276.00;;;16.00;63.48
49423;BME280;36998;51.974;20.150;2022-10-16T05:59:46;100278.97;;;16.05;63.45
49423;BME280;36998;51.974;20.150;2022-10-16T06:02:14;100274.16;;;16.07;63.21
49423;BME280;36998;51.974;20.150;2022-10-16T06:04:40;100277.59;;;16.16;62.98
49423;BME280;36998;51.974;20.150;2022-10-16T06:07:05;100283.28;;;16.28;62.91
49423;BME280;36998;51.974;20.150;2022-10-16T06:09:31;100273.09;;;16.36;62.64
49423;BME280;36998;51.974;20.150;2022-10-16T06:11:56;100268.53;;;16.50;62.59
49423;BME280;36998;51.974;20.150;2022-10-16T06:14:22;100274.44;;;16.60;61.92
49423;BME280;36998;51.974;20.150;2022-10-16T06:16:47;100269.47;;;16.71;62.19
49423;BME280;36998;51.974;20.150;2022-10-16T06:19:13;100277.53;;;16.85;61.39
49423;BME280;36998;51.974;20.150;2022-10-16T06:21:38;100293.28;;;16.90;61.30
49423;BME280;36998;51.974;20.150;2022-10-16T06:24:04;100298.13;;;16.88;61.46
49423;BME280;36998;51.974;20.150;2022-10-16T06:26:30;100306.28;;;16.88;61.55
49423;BME280;36998;51.974;20.150;2022-10-16T06:28:58;100302.94;;;16.93;61.05
49423;BME280;36998;51.974;20.150;2022-10-16T06:31:26;100300.47;;;17.04;61.01
49423;BME280;36998;51.974;20.150;2022-10-16T06:33:53;100306.19;;;17.23;60.45
49423;BME280;36998;51.974;20.150;2022-10-16T06:36:19;100294.03;;;17.32;60.32
49423;BME280;36998;51.974;20.150;2022-10-16T06:38:45;100302.03;;;17.47;59.94
49423;BME280;36998;51.974;20.150;2022-10-16T06:41:13;100303.13;;;17.66;59.77
49423;BME280;36998;51.974;20.150;2022-10-16T06:43:57;100307.94;;;17.70;59.26
49423;BME280;36998;51.974;20.150;2022-10-16T06:46:24;100306.03;;;17.71;59.09
49423;BME280;36998;51.974;20.150;2022-10-16T06:48:51;100304.00;;;17.80;59.07
49423;BME280;36998;51.974;20.150;2022-10-16T06:51:18;100306.31;;;17.89;59.01
49423;BME280;36998;51.974;20.150;2022-10-16T06:53:46;100296.63;;;18.00;58.58
49423;BME280;36998;51.974;20.150;2022-10-16T06:56:19;100296.81;;;18.12;58.03
49423;BME280;36998;51.974;20.150;2022-10-16T06:58:45;100300.59;;;18.17;57.92
49423;BME280;36998;51.974;20.150;2022-10-16T07:01:11;100301.41;;;18.18;57.89
49423;BME280;36998;51.974;20.150;2022-10-16T07:03:39;100302.03;;;18.27;57.25
49423;BME280;36998;51.974;20.150;2022-10-16T07:06:07;100310.06;;;18.28;57.49
49423;BME280;36998;51.974;20.150;2022-10-16T07:08:38;100320.09;;;18.34;57.25
49423;BME280;36998;51.974;20.150;2022-10-16T07:11:05;100315.91;;;18.38;57.07
49423;BME280;36998;51.974;20.150;2022-10-16T07:13:36;100337.34;;;18.55;56.68
49423;BME280;36998;51.974;20.150;2022-10-16T07:16:09;100334.13;;;18.71;56.36
49423;BME280;36998;51.974;20.150;2022-10-16T07:18:35;100332.00;;;18.80;56.17
49423;BME280;36998;51.974;20.150;2022-10-16T07:21:05;100337.69;;;18.85;55.92
49423;BME280;36998;51.974;20.150;2022-10-16T07:23:31;100342.06;;;18.92;55.58
49423;BME280;36998;51.974;20.150;2022-10-16T07:25:57;100337.06;;;18.83;55.74
49423;BME280;36998;51.974;20.150;2022-10-16T07:28:22;100327.56;;;18.85;55.87
49423;BME280;36998;51.974;20.150;2022-10-16T07:30:48;100326.34;;;18.81;55.62
49423;BME280;36998;51.974;20.150;2022-10-16T07:33:13;100338.13;;;18.82;55.79
49423;BME280;36998;51.974;20.150;2022-10-16T07:35:48;100337.25;;;18.88;55.69
49423;BME280;36998;51.974;20.150;2022-10-16T07:38:13;100341.88;;;18.94;55.72
49423;BME280;36998;51.974;20.150;2022-10-16T07:40:39;100347.69;;;19.11;55.39
49423;BME280;36998;51.974;20.150;2022-10-16T07:43:25;100358.94;;;19.34;55.13
49423;BME280;36998;51.974;20.150;2022-10-16T07:45:51;100353.72;;;19.58;54.65
49423;BME280;36998;51.974;20.150;2022-10-16T07:48:17;100358.75;;;19.68;54.40
49423;BME280;36998;51.974;20.150;2022-10-16T07:50:43;100353.91;;;19.70;54.20
49423;BME280;36998;51.974;20.150;2022-10-16T07:53:09;100355.53;;;19.77;54.25
49423;BME280;36998;51.974;20.150;2022-10-16T07:55:35;100342.66;;;19.78;54.05
49423;BME280;36998;51.974;20.150;2022-10-16T07:58:00;100346.63;;;19.88;54.05
49423;BME280;36998;51.974;20.150;2022-10-16T08:00:26;100355.63;;;19.96;53.76
49423;BME280;36998;51.974;20.150;2022-10-16T08:03:01;100347.16;;;19.97;53.57
49423;BME280;36998;51.974;20.150;2022-10-16T08:05:28;100349.84;;;20.04;53.50
49423;BME280;36998;51.974;20.150;2022-10-16T08:07:55;100350.59;;;20.18;53.29
49423;BME280;36998;51.974;20.150;2022-10-16T08:10:23;100349.22;;;20.27;53.06
49423;BME280;36998;51.974;20.150;2022-10-16T08:13:09;100356.78;;;20.31;53.04
49423;BME280;36998;51.974;20.150;2022-10-16T08:15:34;100354.50;;;20.47;53.04
49423;BME280;36998;51.974;20.150;2022-10-16T08:18:05;100360.44;;;20.69;52.50
49423;BME280;36998;51.974;20.150;2022-10-16T08:20:31;100356.56;;;20.76;52.12
49423;BME280;36998;51.974;20.150;2022-10-16T08:22:57;100363.03;;;20.82;52.18
49423;BME280;36998;51.974;20.150;2022-10-16T08:25:23;100371.34;;;20.75;52.07
49423;BME280;36998;51.974;20.150;2022-10-16T08:27:49;100371.72;;;20.61;52.24
49423;BME280;36998;51.974;20.150;2022-10-16T08:30:15;100360.06;;;20.65;52.11
49423;BME280;36998;51.974;20.150;2022-10-16T08:32:41;100377.59;;;20.64;52.16
49423;BME280;36998;51.974;20.150;2022-10-16T08:35:11;100378.19;;;20.66;52.05
49423;BME280;36998;51.974;20.150;2022-10-16T08:37:37;100382.25;;;20.82;51.82
49423;BME280;36998;51.974;20.150;2022-10-16T08:40:05;100380.97;;;21.03;51.32
49423;BME280;36998;51.974;20.150;2022-10-16T08:42:47;100387.66;;;21.07;51.25
49423;BME280;36998;51.974;20.150;2022-10-16T08:45:34;100390.94;;;21.16;51.24
49423;BME280;36998;51.974;20.150;2022-10-16T08:48:29;100379.88;;;21.22;50.91
49423;BME280;36998;51.974;20.150;2022-10-16T08:50:56;100388.88;;;21.30;50.86
49423;BME280;36998;51.974;20.150;2022-10-16T08:53:33;100385.88;;;21.31;50.79
49423;BME280;36998;51.974;20.150;2022-10-16T08:56:01;100395.13;;;21.67;50.37
49423;BME280;36998;51.974;20.150;2022-10-16T08:58:29;100393.56;;;21.59;50.32
49423;BME280;36998;51.974;20.150;2022-10-16T09:00:57;100399.19;;;21.64;50.30
49423;BME280;36998;51.974;20.150;2022-10-16T09:06:29;100385.91;;;21.61;49.98
49423;BME280;36998;51.974;20.150;2022-10-16T09:17:32;100386.94;;;21.90;49.33
49423;BME280;36998;51.974;20.150;2022-10-16T09:20:16;100380.88;;;21.88;49.28
49423;BME280;36998;51.974;20.150;2022-10-16T09:22:43;100383.84;;;21.87;49.37
49423;BME280;36998;51.974;20.150;2022-10-16T09:25:21;100389.81;;;21.84;49.54
49423;BME280;36998;51.974;20.150;2022-10-16T09:27:48;100387.81;;;22.03;49.19
49423;BME280;36998;51.974;20.150;2022-10-16T09:30:21;100378.38;;;21.98;49.00
49423;BME280;36998;51.974;20.150;2022-10-16T09:32:50;100385.91;;;22.03;48.79
49423;BME280;36998;51.974;20.150;2022-10-16T09:35:20;100386.09;;;22.32;48.55
49423;BME280;36998;51.974;20.150;2022-10-16T09:37:48;100380.38;;;22.45;47.95
49423;BME280;36998;51.974;20.150;2022-10-16T09:40:30;100384.44;;;22.54;47.86
49423;BME280;36998;51.974;20.150;2022-10-16T09:43:20;100374.00;;;22.68;47.62
49423;BME280;36998;51.974;20.150;2022-10-16T09:46:01;100384.53;;;22.71;47.18
49423;BME280;36998;51.974;20.150;2022-10-16T09:48:36;100381.88;;;22.88;46.88
49423;BME280;36998;51.974;20.150;2022-10-16T09:51:04;100378.63;;;23.14;46.72
49423;BME280;36998;51.974;20.150;2022-10-16T09:53:44;100378.91;;;23.42;46.14
49423;BME280;36998;51.974;20.150;2022-10-16T09:56:11;100382.97;;;23.68;45.72
49423;BME280;36998;51.974;20.150;2022-10-16T09:58:42;100382.13;;;23.67;45.44
49423;BME280;36998;51.974;20.150;2022-10-16T10:01:15;100377.38;;;23.63;45.71
49423;BME280;36998;51.974;20.150;2022-10-16T10:03:42;100384.47;;;23.58;45.47
49423;BME280;36998;51.974;20.150;2022-10-16T10:06:36;100388.88;;;23.59;45.97
49423;BME280;36998;51.974;20.150;2022-10-16T10:09:22;100380.00;;;23.69;45.67
49423;BME280;36998;51.974;20.150;2022-10-16T10:12:23;100382.44;;;23.54;45.70
49423;BME280;36998;51.974;20.150;2022-10-16T10:14:51;100377.47;;;23.39;45.96
49423;BME280;36998;51.974;20.150;2022-10-16T10:17:25;100379.56;;;23.20;46.02
49423;BME280;36998;51.974;20.150;2022-10-16T10:20:14;100386.94;;;23.03;46.45
49423;BME280;36998;51.974;20.150;2022-10-16T10:22:43;100374.69;;;22.99;46.85
49423;BME280;36998;51.974;20.150;2022-10-16T10:30:49;100384.75;;;23.45;46.35
49423;BME280;36998;51.974;20.150;2022-10-16T10:36:20;100381.94;;;23.57;45.81
49423;BME280;36998;51.974;20.150;2022-10-16T10:38:52;100373.94;;;23.55;46.00
49423;BME280;36998;51.974;20.150;2022-10-16T10:44:57;100371.16;;;23.27;46.37
49423;BME280;36998;51.974;20.150;2022-10-16T10:52:58;100367.25;;;23.51;45.96
49423;BME280;36998;51.974;20.150;2022-10-16T10:55:33;100367.66;;;23.60;45.70
49423;BME280;36998;51.974;20.150;2022-10-16T11:03:35;100378.31;;;24.14;45.06
49423;BME280;36998;51.974;20.150;2022-10-16T11:06:10;100371.53;;;24.21;44.60
49423;BME280;36998;51.974;20.150;2022-10-16T11:08:48;100376.09;;;24.16;44.72
49423;BME280;36998;51.974;20.150;2022-10-16T11:11:22;100380.56;;;24.34;44.81
49423;BME280;36998;51.974;20.150;2022-10-16T11:14:21;100375.03;;;24.34;44.34
49423;BME280;36998;51.974;20.150;2022-10-16T11:16:55;100370.53;;;24.11;45.03
49423;BME280;36998;51.974;20.150;2022-10-16T11:22:37;100356.13;;;24.09;45.22
49423;BME280;36998;51.974;20.150;2022-10-16T11:25:16;100352.53;;;24.25;45.28
49423;BME280;36998;51.974;20.150;2022-10-16T11:30:24;100354.16;;;25.42;42.69
49423;BME280;36998;51.974;20.150;2022-10-16T11:32:56;100359.13;;;25.67;42.27
49423;BME280;36998;51.974;20.150;2022-10-16T11:35:44;100355.00;;;26.29;41.37
49423;BME280;36998;51.974;20.150;2022-10-16T11:40:54;100347.34;;;28.39;37.44
49423;BME280;36998;51.974;20.150;2022-10-16T11:43:38;100344.38;;;29.70;35.67
49423;BME280;36998;51.974;20.150;2022-10-16T11:46:15;100348.13;;;30.82;33.87
49423;BME280;36998;51.974;20.150;2022-10-16T11:49:09;100348.41;;;31.47;32.41
49423;BME280;36998;51.974;20.150;2022-10-16T11:51:40;100345.41;;;30.48;33.54
49423;BME280;36998;51.974;20.150;2022-10-16T11:54:22;100347.41;;;30.95;32.82
49423;BME280;36998;51.974;20.150;2022-10-16T11:56:53;100354.69;;;30.91;32.50
49423;BME280;36998;51.974;20.150;2022-10-16T11:59:42;100339.94;;;31.90;31.68
49423;BME280;36998;51.974;20.150;2022-10-16T12:02:48;100339.31;;;31.18;32.57
49423;BME280;36998;51.974;20.150;2022-10-16T12:05:28;100353.41;;;29.91;34.13
49423;BME280;36998;51.974;20.150;2022-10-16T12:08:08;100360.81;;;29.67;34.35
49423;BME280;36998;51.974;20.150;2022-10-16T12:10:35;100349.06;;;31.58;31.45
49423;BME280;36998;51.974;20.150;2022-10-16T12:13:29;100355.97;;;33.83;29.21
49423;BME280;36998;51.974;20.150;2022-10-16T12:18:43;100348.47;;;38.74;23.19
49423;BME280;36998;51.974;20.150;2022-10-16T12:21:09;100349.75;;;40.79;21.55
49423;BME280;36998;51.974;20.150;2022-10-16T12:23:47;100341.78;;;42.09;20.15
49423;BME280;36998;51.974;20.150;2022-10-16T12:26:13;100344.03;;;41.81;19.89
49423;BME280;36998;51.974;20.150;2022-10-16T12:28:39;100342.16;;;40.67;20.74
49423;BME280;36998;51.974;20.150;2022-10-16T12:31:07;100354.16;;;40.32;20.65
49423;BME280;36998;51.974;20.150;2022-10-16T12:33:37;100342.63;;;39.69;21.22
49423;BME280;36998;51.974;20.150;2022-10-16T12:36:13;100358.56;;;38.17;22.60
49423;BME280;36998;51.974;20.150;2022-10-16T12:38:50;100350.69;;;39.54;21.40
49423;BME280;36998;51.974;20.150;2022-10-16T12:41:31;100355.72;;;39.73;21.44
49423;BME280;36998;51.974;20.150;2022-10-16T12:43:57;100350.13;;;37.76;22.86
49423;BME280;36998;51.974;20.150;2022-10-16T12:46:38;100344.47;;;36.01;24.82
49423;BME280;36998;51.974;20.150;2022-10-16T12:51:35;100370.50;;;33.35;28.13
49423;BME280;36998;51.974;20.150;2022-10-16T12:56:47;100368.00;;;31.42;30.12
49423;BME280;36998;51.974;20.150;2022-10-16T12:59:28;100363.63;;;30.64;31.78
49423;BME280;36998;51.974;20.150;2022-10-16T13:05:00;100373.78;;;29.32;33.89
49423;BME280;36998;51.974;20.150;2022-10-16T13:07:48;100380.94;;;28.73;34.53
49423;BME280;36998;51.974;20.150;2022-10-16T13:10:31;100386.81;;;28.20;35.56
49423;BME280;36998;51.974;20.150;2022-10-16T13:13:07;100393.72;;;27.87;36.34
49423;BME280;36998;51.974;20.150;2022-10-16T13:15:57;100385.00;;;27.53;37.41
49423;BME280;36998;51.974;20.150;2022-10-16T13:21:25;100393.41;;;26.53;38.84
49423;BME280;36998;51.974;20.150;2022-10-16T13:24:16;100391.84;;;26.03;39.98
49423;BME280;36998;51.974;20.150;2022-10-16T13:27:02;100396.16;;;25.88;40.31
49423;BME280;36998;51.974;20.150;2022-10-16T13:29:31;100388.44;;;25.68;40.87
49423;BME280;36998;51.974;20.150;2022-10-16T13:31:59;100387.66;;;25.46;41.24
49423;BME280;36998;51.974;20.150;2022-10-16T13:34:26;100397.13;;;25.28;42.05
49423;BME280;36998;51.974;20.150;2022-10-16T13:36:53;100387.81;;;25.12;42.50
49423;BME280;36998;51.974;20.150;2022-10-16T13:42:12;100388.81;;;24.67;43.21
49423;BME280;36998;51.974;20.150;2022-10-16T13:44:44;100387.25;;;24.55;43.88
49423;BME280;36998;51.974;20.150;2022-10-16T13:47:18;100392.44;;;24.51;43.87
49423;BME280;36998;51.974;20.150;2022-10-16T13:49:45;100385.09;;;24.57;44.00
49423;BME280;36998;51.974;20.150;2022-10-16T13:52:19;100393.94;;;24.59;44.29
49423;BME280;36998;51.974;20.150;2022-10-16T13:54:45;100403.56;;;24.56;44.26
49423;BME280;36998;51.974;20.150;2022-10-16T13:57:16;100408.84;;;24.58;44.31
49423;BME280;36998;51.974;20.150;2022-10-16T13:59:41;100406.66;;;24.60;44.48
49423;BME280;36998;51.974;20.150;2022-10-16T14:02:25;100411.75;;;24.68;44.34
49423;BME280;36998;51.974;20.150;2022-10-16T14:04:51;100409.22;;;24.83;43.84